createdAt,value
2018-09-16T00:00:00.670Z,99.99
2018-09-16T00:01:00.651Z,99.99
2018-09-16T00:02:00.645Z,99.99
2018-09-16T00:03:00.617Z,99.99
2018-09-16T00:04:00.599Z,99.99
2018-09-16T00:05:00.684Z,99.99
2018-09-16T00:06:00.565Z,99.99
2018-09-16T00:07:00.548Z,99.99
2018-09-16T00:08:00.546Z,99.99
2018-09-16T00:09:00.524Z,99.99
2018-09-16T00:10:00.497Z,99.99
2018-09-16T00:11:00.480Z,99.99
2018-09-16T00:12:00.460Z,99.99
2018-09-16T00:13:00.445Z,99.99
2018-09-16T00:14:00.425Z,99.99
2018-09-16T00:15:00.416Z,99.99
2018-09-16T00:16:00.430Z,99.99
2018-09-16T00:17:00.374Z,99.99
2018-09-16T00:18:00.356Z,99.99
2018-09-16T00:19:00.354Z,99.99
2018-09-16T00:20:00.323Z,99.99
2018-09-16T00:21:00.308Z,99.99
2018-09-16T00:22:00.298Z,99.99
2018-09-16T00:23:00.272Z,99.99
2018-09-16T00:24:00.261Z,99.99
2018-09-16T00:25:00.235Z,99.99
2018-09-16T00:26:00.215Z,99.99
2018-09-16T00:27:00.272Z,99.99
2018-09-16T00:28:00.190Z,99.99
2018-09-16T00:29:00.166Z,99.99
2018-09-16T00:30:00.149Z,99.99
2018-09-16T00:31:00.129Z,99.99
2018-09-16T00:32:00.113Z,99.99
2018-09-16T00:33:00.094Z,99.99
2018-09-16T00:34:00.089Z,99.99
2018-09-16T00:35:00.059Z,99.99
2018-09-16T00:36:00.052Z,99.99
2018-09-16T00:37:00.026Z,99.99
2018-09-16T00:38:00.105Z,99.99
2018-09-16T00:38:59.987Z,99.99
2018-09-16T00:39:59.973Z,99.99
2018-09-16T00:40:59.963Z,99.99
2018-09-16T00:41:59.936Z,99.99
2018-09-16T00:42:59.919Z,99.99
2018-09-16T00:43:59.908Z,99.99
2018-09-16T00:44:59.890Z,99.99
2018-09-16T00:45:59.865Z,99.99
2018-09-16T00:46:59.848Z,99.99
2018-09-16T00:47:59.839Z,99.99
2018-09-16T00:48:59.816Z,99.99
2018-09-16T00:49:59.799Z,99.99
2018-09-16T00:50:59.790Z,99.99
2018-09-16T00:51:59.763Z,99.99
2018-09-16T00:52:59.746Z,99.99
2018-09-16T00:53:59.768Z,99.99
2018-09-16T00:54:59.712Z,99.99
2018-09-16T00:55:59.693Z,99.99
2018-09-16T00:56:59.778Z,99.99
2018-09-16T00:57:59.657Z,99.99
2018-09-16T00:58:59.645Z,99.99
2018-09-16T00:59:59.620Z,99.99
2018-09-16T01:00:59.603Z,99.99
2018-09-16T01:01:59.593Z,99.99
2018-09-16T01:02:59.583Z,99.99
2018-09-16T01:03:59.549Z,99.99
2018-09-16T01:04:59.535Z,99.99
2018-09-16T01:05:59.514Z,99.99
2018-09-16T01:06:59.496Z,99.99
2018-09-16T01:07:59.478Z,99.99
2018-09-16T01:08:59.471Z,99.99
2018-09-16T01:09:59.449Z,99.99
2018-09-16T01:10:59.425Z,99.99
2018-09-16T01:11:59.411Z,99.99
2018-09-16T01:12:59.393Z,99.99
2018-09-16T01:13:59.377Z,99.99
2018-09-16T01:14:59.366Z,99.99
2018-09-16T01:15:59.339Z,99.99
2018-09-16T01:16:59.321Z,99.99
2018-09-16T01:17:59.303Z,99.99
2018-09-16T01:18:59.288Z,99.99
2018-09-16T01:19:59.270Z,99.99
2018-09-16T01:20:59.255Z,99.99
2018-09-16T01:21:59.232Z,99.99
2018-09-16T01:22:59.214Z,99.99
2018-09-16T01:23:59.198Z,99.99
2018-09-16T01:24:59.181Z,99.99
2018-09-16T01:25:59.163Z,99.99
2018-09-16T01:26:59.141Z,99.99
2018-09-16T01:27:59.128Z,99.99
2018-09-16T01:28:59.109Z,99.99
2018-09-16T01:29:59.090Z,99.99
2018-09-16T01:30:59.073Z,99.99
2018-09-16T01:31:59.058Z,99.99
2018-09-16T01:32:59.038Z,99.99
2018-09-16T01:33:59.021Z,99.99
2018-09-16T01:34:59.005Z,99.99
2018-09-16T01:35:58.984Z,99.99
2018-09-16T01:36:58.985Z,99.99
2018-09-16T01:37:58.955Z,99.99
2018-09-16T01:38:58.934Z,99.99
2018-09-16T01:39:59.072Z,99.99
2018-09-16T01:40:58.893Z,99.99
2018-09-16T01:41:58.874Z,99.99
2018-09-16T01:42:58.858Z,99.99
2018-09-16T01:43:58.839Z,99.99
2018-09-16T01:44:58.829Z,99.99
2018-09-16T01:45:58.806Z,99.99
2018-09-16T01:46:58.790Z,99.99
2018-09-16T01:47:58.771Z,99.99
2018-09-16T01:48:58.751Z,99.99
2018-09-16T01:49:58.739Z,99.99
2018-09-16T01:50:58.716Z,99.99
2018-09-16T01:51:58.701Z,99.99
2018-09-16T01:52:58.677Z,99.99
2018-09-16T01:53:58.659Z,99.99
2018-09-16T01:54:58.647Z,99.99
2018-09-16T01:55:58.623Z,99.99
2018-09-16T01:56:58.615Z,99.99
2018-09-16T01:57:58.587Z,99.99
2018-09-16T01:58:58.625Z,99.99
2018-09-16T01:59:58.554Z,99.99
2018-09-16T02:00:58.537Z,99.99
2018-09-16T02:01:58.514Z,99.99
2018-09-16T02:02:58.497Z,99.99
2018-09-16T02:03:58.492Z,99.99
2018-09-16T02:04:58.467Z,99.99
2018-09-16T02:05:58.446Z,99.99
2018-09-16T02:06:58.433Z,99.99
2018-09-16T02:07:58.410Z,99.99
2018-09-16T02:08:58.390Z,99.99
2018-09-16T02:09:58.374Z,99.99
2018-09-16T02:10:58.353Z,99.99
2018-09-16T02:11:58.335Z,99.99
2018-09-16T02:12:58.332Z,99.99
2018-09-16T02:13:58.303Z,99.99
2018-09-16T02:14:58.282Z,99.99
2018-09-16T02:15:58.273Z,99.99
2018-09-16T02:16:58.245Z,99.99
2018-09-16T02:17:58.229Z,99.99
2018-09-16T02:18:58.209Z,99.99
2018-09-16T02:19:58.192Z,99.99
2018-09-16T02:20:58.172Z,99.99
2018-09-16T02:21:58.153Z,99.99
2018-09-16T02:22:58.144Z,99.99
2018-09-16T02:23:58.118Z,99.99
2018-09-16T02:24:58.103Z,99.99
2018-09-16T02:25:58.093Z,99.99
2018-09-16T02:26:58.066Z,99.99
2018-09-16T02:27:58.046Z,99.99
2018-09-16T02:28:58.040Z,99.99
2018-09-16T02:29:58.016Z,99.99
2018-09-16T02:30:57.992Z,99.99
2018-09-16T02:31:57.971Z,99.99
2018-09-16T02:32:57.958Z,99.99
2018-09-16T02:33:57.938Z,99.99
2018-09-16T02:34:57.925Z,99.99
2018-09-16T02:35:57.901Z,99.99
2018-09-16T02:36:57.885Z,99.99
2018-09-16T02:37:57.872Z,99.99
2018-09-16T02:38:57.849Z,99.99
2018-09-16T02:39:57.835Z,99.99
2018-09-16T02:40:57.811Z,99.99
2018-09-16T02:41:57.792Z,99.99
2018-09-16T02:42:57.772Z,99.99
2018-09-16T02:43:57.754Z,99.99
2018-09-16T02:44:57.736Z,99.99
2018-09-16T02:45:57.717Z,99.99
2018-09-16T02:46:57.700Z,99.99
2018-09-16T02:47:57.717Z,99.99
2018-09-16T02:48:57.664Z,99.99
2018-09-16T02:49:57.646Z,99.99
2018-09-16T02:50:57.627Z,99.99
2018-09-16T02:51:57.612Z,99.99
2018-09-16T02:52:57.598Z,99.99
2018-09-16T02:53:57.577Z,99.99
2018-09-16T02:54:57.552Z,99.99
2018-09-16T02:55:57.542Z,99.99
2018-09-16T02:56:57.528Z,99.99
2018-09-16T02:57:57.504Z,99.99
2018-09-16T02:58:57.479Z,99.99
2018-09-16T02:59:57.463Z,99.99
2018-09-16T03:00:57.444Z,99.99
2018-09-16T03:01:57.426Z,99.99
2018-09-16T03:02:57.409Z,99.99
2018-09-16T03:03:57.534Z,99.99
2018-09-16T03:04:57.376Z,99.99
2018-09-16T03:05:57.356Z,99.99
2018-09-16T03:06:57.340Z,99.99
2018-09-16T03:07:57.327Z,99.99
2018-09-16T03:08:57.297Z,99.99
2018-09-16T03:09:57.280Z,99.99
2018-09-16T03:10:57.258Z,99.99
2018-09-16T03:11:57.352Z,99.99
2018-09-16T03:12:57.232Z,99.99
2018-09-16T03:13:57.204Z,99.99
2018-09-16T03:14:57.202Z,99.99
2018-09-16T03:15:57.168Z,99.99
2018-09-16T03:16:57.158Z,99.99
2018-09-16T03:17:57.140Z,99.99
2018-09-16T03:18:57.176Z,99.99
2018-09-16T03:19:57.096Z,99.99
2018-09-16T03:20:57.075Z,99.99
2018-09-16T03:21:57.057Z,99.99
2018-09-16T03:22:57.039Z,99.99
2018-09-16T03:23:57.021Z,99.99
2018-09-16T03:24:57.009Z,99.99
2018-09-16T03:25:56.992Z,99.99
2018-09-16T03:26:56.966Z,99.99
2018-09-16T03:27:56.947Z,99.99
2018-09-16T03:28:56.934Z,99.99
2018-09-16T03:29:56.913Z,99.99
2018-09-16T03:30:56.892Z,99.99
2018-09-16T03:31:56.878Z,99.99
2018-09-16T03:32:56.857Z,99.99
2018-09-16T03:33:57.003Z,99.99
2018-09-16T03:34:56.820Z,99.99
2018-09-16T03:35:56.799Z,99.99
2018-09-16T03:36:56.800Z,99.99
2018-09-16T03:37:56.764Z,99.99
2018-09-16T03:38:56.745Z,99.99
2018-09-16T03:39:56.726Z,99.99
2018-09-16T03:40:56.720Z,99.99
2018-09-16T03:41:56.694Z,99.99
2018-09-16T03:42:56.671Z,99.99
2018-09-16T03:43:56.662Z,99.99
2018-09-16T03:44:56.637Z,99.99
2018-09-16T03:45:56.619Z,99.99
2018-09-16T03:46:56.743Z,99.99
2018-09-16T03:47:56.580Z,99.99
2018-09-16T03:48:56.559Z,99.99
2018-09-16T03:49:56.561Z,99.99
2018-09-16T03:50:56.635Z,99.99
2018-09-16T03:51:56.504Z,99.99
2018-09-16T03:52:56.515Z,99.99
2018-09-16T03:53:56.468Z,99.99
2018-09-16T03:54:56.448Z,99.99
2018-09-16T03:55:56.438Z,99.99
2018-09-16T03:56:56.412Z,99.99
2018-09-16T03:57:56.396Z,99.99
2018-09-16T03:58:56.376Z,99.99
2018-09-16T03:59:56.355Z,99.99
2018-09-16T04:00:56.337Z,99.99
2018-09-16T04:01:56.323Z,99.99
2018-09-16T04:02:56.299Z,99.99
2018-09-16T04:03:56.296Z,99.99
2018-09-16T04:04:56.265Z,99.99
2018-09-16T04:05:56.245Z,99.99
2018-09-16T04:06:56.376Z,99.99
2018-09-16T04:07:56.210Z,99.99
2018-09-16T04:08:56.196Z,99.99
2018-09-16T04:09:56.221Z,99.99
2018-09-16T04:10:56.158Z,99.99
2018-09-16T04:11:56.139Z,99.99
2018-09-16T04:12:56.116Z,99.99
2018-09-16T04:13:56.219Z,99.99
2018-09-16T04:14:56.075Z,99.99
2018-09-16T04:15:56.060Z,99.99
2018-09-16T04:16:56.037Z,99.99
2018-09-16T04:17:56.019Z,99.99
2018-09-16T04:18:56.000Z,99.99
2018-09-16T04:19:55.986Z,99.99
2018-09-16T04:20:55.980Z,99.99
2018-09-16T04:21:55.957Z,99.99
2018-09-16T04:22:55.933Z,99.99
2018-09-16T04:23:55.912Z,99.99
2018-09-16T04:24:55.888Z,99.99
2018-09-16T04:25:55.907Z,99.99
2018-09-16T04:26:55.850Z,99.99
2018-09-16T04:27:55.834Z,99.99
2018-09-16T04:28:55.813Z,99.99
2018-09-16T04:29:55.797Z,99.99
2018-09-16T04:30:55.783Z,99.99
2018-09-16T04:31:55.770Z,99.99
2018-09-16T04:32:55.742Z,99.99
2018-09-16T04:33:55.719Z,99.99
2018-09-16T04:34:55.701Z,99.99
2018-09-16T04:35:55.681Z,99.99
2018-09-16T04:36:55.662Z,99.99
2018-09-16T04:37:55.649Z,99.99
2018-09-16T04:38:55.624Z,99.99
2018-09-16T04:39:55.658Z,99.99
2018-09-16T04:40:55.585Z,99.99
2018-09-16T04:41:55.572Z,99.99
2018-09-16T04:42:55.548Z,99.99
2018-09-16T04:43:55.532Z,99.99
2018-09-16T04:44:55.564Z,99.99
2018-09-16T04:45:55.494Z,99.99
2018-09-16T04:46:55.474Z,99.99
2018-09-16T04:47:55.454Z,99.99
2018-09-16T04:48:55.441Z,99.99
2018-09-16T04:50:55.800Z,99.99
2018-09-16T04:52:55.360Z,99.99
2018-09-16T04:53:55.341Z,99.99
2018-09-16T04:54:55.320Z,99.99
2018-09-16T04:55:55.385Z,99.99
2018-09-16T04:56:56.292Z,99.99
2018-09-16T04:59:55.231Z,99.99
2018-09-16T05:00:58.245Z,99.99
2018-09-16T05:01:56.211Z,99.99
2018-09-16T05:02:56.183Z,99.99
2018-09-16T05:03:55.150Z,99.99
2018-09-16T05:05:55.114Z,99.99
2018-09-16T05:06:55.094Z,99.99
2018-09-16T05:08:55.260Z,99.99
2018-09-16T05:09:55.036Z,99.99
2018-09-16T05:10:55.016Z,99.99
2018-09-16T05:11:54.998Z,99.99
2018-09-16T05:12:55.185Z,99.99
2018-09-16T05:13:54.960Z,99.99
2018-09-16T05:14:54.940Z,99.99
2018-09-16T05:15:54.926Z,99.99
2018-09-16T05:16:57.910Z,99.99
2018-09-16T05:18:54.862Z,99.99
2018-09-16T05:20:54.846Z,99.99
2018-09-16T05:22:54.794Z,99.99
2018-09-16T05:23:55.784Z,99.99
2018-09-16T05:25:54.732Z,99.99
2018-09-16T05:26:54.715Z,99.99
2018-09-16T05:27:54.695Z,99.99
2018-09-16T05:28:54.717Z,99.99
2018-09-16T05:29:54.661Z,99.99
2018-09-16T05:30:57.640Z,99.99
2018-09-16T05:31:55.749Z,99.99
2018-09-16T05:32:54.602Z,99.99
2018-09-16T05:33:54.584Z,99.99
2018-09-16T05:34:54.567Z,99.99
2018-09-16T05:36:54.525Z,99.99
2018-09-16T05:37:55.517Z,99.99
2018-09-16T05:39:54.471Z,99.99
2018-09-16T05:40:54.454Z,99.99
2018-09-16T05:41:54.431Z,99.99
2018-09-16T05:42:54.412Z,99.99
2018-09-16T05:43:54.399Z,99.99
2018-09-16T05:44:54.377Z,99.99
2018-09-16T05:45:54.355Z,99.99
2018-09-16T05:46:54.336Z,99.99
2018-09-16T05:47:54.322Z,99.99
2018-09-16T05:48:54.303Z,99.99
2018-09-16T05:49:54.286Z,99.99
2018-09-16T05:50:54.265Z,99.99
2018-09-16T05:51:54.251Z,99.99
2018-09-16T05:52:54.251Z,99.99
2018-09-16T05:53:54.265Z,99.99
2018-09-16T05:54:54.186Z,99.99
2018-09-16T05:55:54.179Z,99.99
2018-09-16T05:56:54.150Z,99.99
2018-09-16T05:57:54.131Z,99.99
2018-09-16T05:58:54.116Z,99.99
2018-09-16T05:59:54.093Z,99.99
2018-09-16T06:00:54.074Z,99.99
2018-09-16T06:01:54.056Z,99.99
2018-09-16T06:02:54.036Z,99.99
2018-09-16T06:03:54.026Z,99.99
2018-09-16T06:04:54.034Z,99.99
2018-09-16T06:05:53.988Z,99.99
2018-09-16T06:06:54.006Z,99.99
2018-09-16T06:07:53.942Z,99.99
2018-09-16T06:08:53.924Z,99.99
2018-09-16T06:09:53.905Z,99.99
2018-09-16T06:10:53.943Z,99.99
2018-09-16T06:11:53.868Z,99.99
2018-09-16T06:12:53.854Z,99.99
2018-09-16T06:13:53.829Z,99.99
2018-09-16T06:14:53.810Z,99.99
2018-09-16T06:15:53.795Z,99.99
2018-09-16T06:16:53.773Z,99.99
2018-09-16T06:17:53.754Z,99.99
2018-09-16T06:18:53.734Z,99.99
2018-09-16T06:19:53.715Z,99.99
2018-09-16T06:20:53.700Z,99.99
2018-09-16T06:21:53.687Z,99.99
2018-09-16T06:22:53.770Z,99.99
2018-09-16T06:23:53.642Z,99.99
2018-09-16T06:24:53.622Z,99.99
2018-09-16T06:25:53.604Z,99.99
2018-09-16T06:26:53.590Z,99.99
2018-09-16T06:27:53.569Z,99.99
2018-09-16T06:28:53.549Z,99.99
2018-09-16T06:29:53.533Z,99.99
2018-09-16T06:30:53.513Z,99.99
2018-09-16T06:31:53.494Z,99.99
2018-09-16T06:32:53.479Z,99.99
2018-09-16T06:33:53.460Z,99.99
2018-09-16T06:34:53.442Z,99.99
2018-09-16T06:35:53.414Z,99.99
2018-09-16T06:36:53.398Z,99.99
2018-09-16T06:37:53.377Z,99.99
2018-09-16T06:38:53.359Z,99.99
2018-09-16T06:39:53.401Z,99.99
2018-09-16T06:40:53.326Z,99.99
2018-09-16T06:41:53.308Z,99.99
2018-09-16T06:42:53.295Z,99.99
2018-09-16T06:43:53.267Z,99.99
2018-09-16T06:44:53.246Z,99.99
2018-09-16T06:45:53.298Z,99.99
2018-09-16T06:46:53.209Z,99.99
2018-09-16T06:47:53.190Z,99.99
2018-09-16T06:48:53.170Z,99.99
2018-09-16T06:49:53.162Z,99.99
2018-09-16T06:50:53.190Z,99.99
2018-09-16T06:51:53.112Z,99.99
2018-09-16T06:52:53.136Z,99.99
2018-09-16T06:53:53.074Z,99.99
2018-09-16T06:54:53.076Z,99.99
2018-09-16T06:55:53.036Z,99.99
2018-09-16T06:56:53.032Z,99.99
2018-09-16T06:57:52.997Z,99.99
2018-09-16T06:58:52.981Z,99.99
2018-09-16T06:59:52.961Z,99.99
2018-09-16T07:00:53.050Z,99.99
2018-09-16T07:01:52.930Z,99.99
2018-09-16T07:02:52.916Z,99.99
2018-09-16T07:03:52.892Z,99.99
2018-09-16T07:04:52.867Z,99.99
2018-09-16T07:05:52.862Z,99.99
2018-09-16T07:06:52.830Z,99.99
2018-09-16T07:07:52.812Z,99.99
2018-09-16T07:08:52.794Z,99.99
2018-09-16T07:09:52.886Z,99.99
2018-09-16T07:10:52.755Z,99.99
2018-09-16T07:11:52.741Z,99.99
2018-09-16T07:12:52.765Z,99.99
2018-09-16T07:13:52.700Z,99.99
2018-09-16T07:14:52.683Z,99.99
2018-09-16T07:15:52.665Z,99.99
2018-09-16T07:16:52.646Z,99.99
2018-09-16T07:17:52.627Z,99.99
2018-09-16T07:18:52.608Z,99.99
2018-09-16T07:19:52.589Z,99.99
2018-09-16T07:20:52.571Z,99.99
2018-09-16T07:21:52.555Z,99.99
2018-09-16T07:22:52.541Z,99.99
2018-09-16T07:23:52.515Z,99.99
2018-09-16T07:24:52.498Z,99.99
2018-09-16T07:25:52.479Z,99.99
2018-09-16T07:26:52.573Z,99.81
2018-09-16T07:27:52.444Z,99.81
2018-09-16T07:28:52.476Z,98.95
2018-09-16T07:29:52.408Z,99.04
2018-09-16T07:30:52.391Z,99.04
2018-09-16T07:31:52.449Z,98.47
2018-09-16T07:32:52.351Z,98.24
2018-09-16T07:33:52.367Z,96.99
2018-09-16T07:34:52.313Z,96.51
2018-09-16T07:35:52.297Z,95.65
2018-09-16T07:36:52.287Z,95.84
2018-09-16T07:37:52.266Z,95.94
2018-09-16T07:38:52.242Z,95.27
2018-09-16T07:39:52.223Z,94.84
2018-09-16T07:40:52.205Z,94.17
2018-09-16T07:41:52.186Z,93.30
2018-09-16T07:42:52.184Z,93.30
2018-09-16T07:43:52.181Z,93.50
2018-09-16T07:44:52.132Z,92.63
2018-09-16T07:45:52.119Z,92.06
2018-09-16T07:46:52.097Z,91.53
2018-09-16T07:47:52.081Z,91.25
2018-09-16T07:48:52.061Z,90.67
2018-09-16T07:49:52.046Z,90.19
2018-09-16T07:50:52.025Z,90.58
2018-09-16T07:51:52.017Z,89.43
2018-09-16T07:52:52.033Z,89.72
2018-09-16T07:53:51.976Z,89.66
2018-09-16T07:54:51.958Z,88.80
2018-09-16T07:55:51.949Z,88.23
2018-09-16T07:56:51.921Z,87.79
2018-09-16T07:57:51.914Z,87.21
2018-09-16T07:58:51.897Z,88.08
2018-09-16T07:59:51.881Z,87.21
2018-09-16T08:00:51.855Z,86.64
2018-09-16T08:01:51.891Z,86.35
2018-09-16T08:02:51.820Z,86.49
2018-09-16T08:03:51.804Z,85.49
2018-09-16T08:04:51.781Z,84.72
2018-09-16T08:05:51.763Z,85.49
2018-09-16T08:06:51.747Z,85.39
2018-09-16T08:07:51.731Z,85.49
2018-09-16T08:08:51.719Z,85.39
2018-09-16T08:09:51.698Z,85.30
2018-09-16T08:10:51.684Z,85.11
2018-09-16T08:11:51.677Z,85.15
2018-09-16T08:12:51.646Z,84.67
2018-09-16T08:13:51.743Z,83.42
2018-09-16T08:14:51.620Z,83.71
2018-09-16T08:15:51.599Z,82.60
2018-09-16T08:16:51.596Z,82.21
2018-09-16T08:17:51.721Z,82.51
2018-09-16T08:18:51.560Z,82.89
2018-09-16T08:19:51.529Z,82.51
2018-09-16T08:20:51.585Z,83.18
2018-09-16T08:21:51.496Z,82.89
2018-09-16T08:22:51.478Z,82.51
2018-09-16T08:23:51.464Z,82.41
2018-09-16T08:24:51.448Z,82.41
2018-09-16T08:25:51.449Z,81.74
2018-09-16T08:26:51.428Z,81.20
2018-09-16T08:27:51.400Z,80.73
2018-09-16T08:28:51.404Z,80.24
2018-09-16T08:29:51.373Z,80.15
2018-09-16T08:30:51.348Z,80.24
2018-09-16T08:31:51.336Z,79.86
2018-09-16T08:32:51.320Z,79.86
2018-09-16T08:33:51.299Z,79.38
2018-09-16T08:34:51.287Z,79.67
2018-09-16T08:35:51.274Z,79.61
2018-09-16T08:36:51.254Z,78.94
2018-09-16T08:37:51.272Z,78.84
2018-09-16T08:38:51.221Z,78.40
2018-09-16T08:39:51.205Z,78.21
2018-09-16T08:40:51.195Z,77.15
2018-09-16T08:41:51.176Z,76.42
2018-09-16T08:42:51.159Z,76.04
2018-09-16T08:43:51.146Z,75.75
2018-09-16T08:44:51.131Z,75.56
2018-09-16T08:45:51.121Z,75.27
2018-09-16T08:46:51.102Z,75.56
2018-09-16T08:47:51.236Z,75.56
2018-09-16T08:48:51.071Z,74.98
2018-09-16T08:49:51.064Z,74.50
2018-09-16T08:50:51.042Z,74.79
2018-09-16T08:51:51.028Z,74.30
2018-09-16T08:52:51.010Z,74.25
2018-09-16T08:53:50.994Z,74.34
2018-09-16T08:54:50.992Z,73.86
2018-09-16T08:55:50.967Z,73.86
2018-09-16T08:56:50.952Z,73.86
2018-09-16T08:57:50.935Z,72.90
2018-09-16T08:58:50.923Z,72.52
2018-09-16T08:59:50.908Z,71.97
2018-09-16T09:00:50.902Z,71.40
2018-09-16T09:01:50.881Z,71.62
2018-09-16T09:02:50.863Z,70.09
2018-09-16T09:03:50.850Z,69.89
2018-09-16T09:04:50.844Z,69.35
2018-09-16T09:05:50.829Z,68.23
2018-09-16T09:06:50.807Z,68.13
2018-09-16T09:07:50.804Z,67.46
2018-09-16T09:08:50.781Z,67.46
2018-09-16T09:09:50.771Z,67.46
2018-09-16T09:10:50.761Z,67.16
2018-09-16T09:11:50.742Z,67.55
2018-09-16T09:12:50.726Z,67.94
2018-09-16T09:14:34.345Z,67.94
2018-09-16T09:15:34.324Z,67.26
2018-09-16T09:16:34.318Z,66.69
2018-09-16T09:17:34.297Z,66.69
2018-09-16T09:18:34.283Z,66.39
2018-09-16T09:19:34.305Z,66.88
2018-09-16T09:20:34.268Z,66.49
2018-09-16T09:21:34.260Z,66.78
2018-09-16T09:22:34.230Z,67.52
2018-09-16T09:23:34.231Z,67.26
2018-09-16T09:24:34.210Z,67.26
2018-09-16T09:25:34.198Z,66.59
2018-09-16T09:26:34.181Z,66.11
2018-09-16T09:27:34.165Z,65.85
2018-09-16T09:28:34.157Z,65.47
2018-09-16T09:29:34.288Z,64.79
2018-09-16T09:30:34.123Z,64.02
2018-09-16T09:31:34.119Z,63.37
2018-09-16T09:32:34.100Z,62.15
2018-09-16T09:33:34.096Z,60.99
2018-09-16T09:34:34.073Z,61.19
2018-09-16T09:35:34.083Z,60.64
2018-09-16T09:36:34.053Z,59.51
2018-09-16T09:37:34.036Z,57.82
2018-09-16T09:38:34.026Z,56.30
2018-09-16T09:39:34.012Z,55.07
2018-09-16T09:40:34.002Z,54.39
2018-09-16T09:41:34.000Z,53.75
2018-09-16T09:42:34.024Z,53.07
2018-09-16T09:43:33.971Z,52.12
2018-09-16T09:44:33.969Z,51.98
2018-09-16T09:46:33.940Z,53.04
2018-09-16T09:47:33.945Z,52.95
2018-09-16T09:48:33.922Z,52.58
2018-09-16T09:49:34.334Z,52.85
2018-09-16T09:51:33.896Z,52.49
2018-09-16T09:52:33.888Z,52.29
2018-09-16T09:53:33.938Z,52.29
2018-09-16T09:54:33.872Z,52.20
2018-09-16T09:55:33.878Z,51.74
2018-09-16T09:56:33.855Z,50.70
2018-09-16T09:57:33.855Z,50.21
2018-09-16T09:58:33.847Z,49.37
2018-09-16T09:59:33.861Z,49.27
2018-09-16T10:00:33.826Z,48.61
2018-09-16T10:01:33.822Z,48.97
2018-09-16T10:02:33.827Z,48.66
2018-09-16T10:03:33.810Z,49.07
2018-09-16T10:04:33.801Z,49.73
2018-09-16T10:05:33.798Z,49.92
2018-09-16T10:06:33.878Z,49.82
2018-09-16T10:07:33.787Z,49.37
2018-09-16T10:08:33.782Z,47.96
2018-09-16T10:09:33.786Z,47.01
2018-09-16T10:10:37.620Z,45.77
2018-09-16T10:11:33.764Z,45.40
2018-09-16T10:12:33.764Z,45.31
2018-09-16T10:13:33.754Z,45.55
2018-09-16T10:14:33.859Z,47.06
2018-09-16T10:15:33.748Z,47.93
2018-09-16T10:16:33.746Z,48.49
2018-09-16T10:17:33.736Z,48.39
2018-09-16T10:18:33.735Z,48.59
2018-09-16T10:19:33.744Z,49.34
2018-09-16T10:20:33.729Z,49.17
2018-09-16T10:21:33.717Z,49.00
2018-09-16T10:22:33.716Z,48.03
2018-09-16T10:23:33.716Z,46.98
2018-09-16T10:24:33.703Z,46.52
2018-09-16T10:25:33.699Z,46.23
2018-09-16T10:26:33.702Z,46.72
2018-09-16T10:27:33.702Z,46.42
2018-09-16T10:28:33.704Z,45.28
2018-09-16T10:29:33.682Z,45.60
2018-09-16T10:30:33.694Z,45.18
2018-09-16T10:31:33.682Z,45.82
2018-09-16T10:32:33.694Z,46.50
2018-09-16T10:33:33.668Z,46.60
2018-09-16T10:34:33.670Z,46.60
2018-09-16T10:35:33.749Z,46.50
2018-09-16T10:36:33.664Z,46.77
2018-09-16T10:37:33.654Z,46.84
2018-09-16T10:38:33.787Z,47.33
2018-09-16T10:39:33.651Z,47.91
2018-09-16T10:40:33.640Z,48.00
2018-09-16T10:41:33.638Z,48.10
2018-09-16T10:42:33.636Z,48.18
2018-09-16T10:43:33.636Z,48.10
2018-09-16T10:44:33.626Z,47.62
2018-09-16T10:45:33.622Z,48.00
2018-09-16T10:46:33.616Z,47.25
2018-09-16T10:47:33.619Z,47.06
2018-09-16T10:48:33.607Z,48.10
2018-09-16T10:49:33.605Z,47.91
2018-09-16T10:50:33.602Z,48.35
2018-09-16T10:51:33.610Z,49.41
2018-09-16T10:52:33.599Z,49.19
2018-09-16T10:53:33.599Z,49.68
2018-09-16T10:54:33.616Z,50.35
2018-09-16T10:55:33.576Z,50.07
2018-09-16T10:56:33.571Z,50.19
2018-09-16T10:57:33.574Z,49.51
2018-09-16T10:58:33.566Z,49.41
2018-09-16T10:59:33.607Z,49.24
2018-09-16T11:00:33.561Z,48.37
2018-09-16T11:01:33.547Z,48.37
2018-09-16T11:02:33.542Z,48.27
2018-09-16T11:03:33.536Z,48.27
2018-09-16T11:04:33.532Z,47.11
2018-09-16T11:05:33.531Z,47.23
2018-09-16T11:06:33.533Z,46.67
2018-09-16T11:07:33.512Z,45.99
2018-09-16T11:08:33.509Z,45.89
2018-09-16T11:09:33.506Z,45.21
2018-09-16T11:10:33.495Z,45.89
2018-09-16T11:11:33.490Z,45.24
2018-09-16T11:12:33.485Z,45.53
2018-09-16T11:13:33.490Z,45.70
2018-09-16T11:14:33.478Z,45.41
2018-09-16T11:15:33.478Z,46.75
2018-09-16T11:16:33.463Z,46.65
2018-09-16T11:17:33.460Z,46.65
2018-09-16T11:18:33.453Z,46.65
2018-09-16T11:19:33.448Z,46.53
2018-09-16T11:20:33.445Z,46.75
2018-09-16T11:21:33.438Z,45.87
2018-09-16T11:22:33.429Z,45.70
2018-09-16T11:23:33.431Z,45.34
2018-09-16T11:24:33.419Z,44.38
2018-09-16T11:25:33.570Z,43.90
2018-09-16T11:26:33.409Z,43.98
2018-09-16T11:27:33.402Z,43.68
2018-09-16T11:28:33.405Z,44.46
2018-09-16T11:29:33.396Z,44.65
2018-09-16T11:30:33.393Z,44.09
2018-09-16T11:31:33.380Z,43.78
2018-09-16T11:32:33.375Z,44.05
2018-09-16T11:33:33.411Z,44.17
2018-09-16T11:34:33.363Z,43.10
2018-09-16T11:35:33.417Z,43.05
2018-09-16T11:36:33.357Z,43.05
2018-09-16T11:37:33.347Z,42.64
2018-09-16T11:38:33.346Z,43.32
2018-09-16T11:39:33.341Z,43.71
2018-09-16T11:40:33.333Z,43.78
2018-09-16T11:41:33.327Z,44.24
2018-09-16T11:42:33.322Z,44.64
2018-09-16T11:43:33.312Z,45.48
2018-09-16T11:44:33.307Z,46.33
2018-09-16T11:45:33.301Z,46.92
2018-09-16T11:46:33.296Z,46.92
2018-09-16T11:47:33.287Z,47.11
2018-09-16T11:49:33.328Z,47.20
2018-09-16T11:50:33.271Z,47.77
2018-09-16T11:51:33.301Z,47.64
2018-09-16T11:52:33.255Z,47.77
2018-09-16T11:53:33.249Z,47.86
2018-09-16T11:54:33.239Z,47.96
2018-09-16T11:55:33.231Z,48.06
2018-09-16T11:56:33.236Z,47.79
2018-09-16T11:57:33.216Z,47.11
2018-09-16T11:58:33.209Z,47.11
2018-09-16T11:59:33.451Z,47.67
2018-09-16T12:00:33.199Z,48.06
2018-09-16T12:01:33.188Z,47.60
2018-09-16T12:02:33.200Z,47.30
2018-09-16T12:03:33.168Z,46.62
2018-09-16T12:04:33.160Z,46.92
2018-09-16T12:05:33.160Z,47.20
2018-09-16T12:06:33.151Z,47.79
2018-09-16T12:08:27.281Z,47.60
2018-09-16T12:10:43.339Z,48.03
2018-09-16T12:11:43.324Z,49.27
2018-09-16T12:12:43.325Z,49.17
2018-09-16T12:13:43.306Z,49.37
2018-09-16T12:14:43.305Z,49.34
2018-09-16T12:15:43.910Z,50.02
2018-09-16T12:16:43.277Z,50.21
2018-09-16T12:17:43.268Z,50.60
2018-09-16T12:18:43.262Z,50.31
2018-09-16T12:19:43.248Z,50.40
2018-09-16T12:20:43.242Z,50.79
2018-09-16T12:21:43.238Z,50.76
2018-09-16T12:22:43.221Z,50.76
2018-09-16T12:23:43.213Z,50.86
2018-09-16T12:24:43.804Z,50.86
2018-09-16T12:25:43.245Z,50.35
2018-09-16T12:26:43.180Z,50.86
2018-09-16T12:27:43.170Z,50.96
2018-09-16T12:28:43.155Z,50.57
2018-09-16T12:29:43.147Z,50.57
2018-09-16T12:30:43.224Z,50.89
2018-09-16T12:31:43.124Z,50.31
2018-09-16T12:32:43.121Z,50.67
2018-09-16T12:33:43.124Z,50.70
2018-09-16T12:34:43.104Z,50.70
2018-09-16T12:35:43.090Z,50.67
2018-09-16T12:36:43.079Z,51.25
2018-09-16T12:37:43.066Z,51.73
2018-09-16T12:38:43.054Z,52.31
2018-09-16T12:39:43.039Z,52.34
2018-09-16T12:40:43.030Z,50.48
2018-09-16T12:41:43.026Z,50.76
2018-09-16T12:42:43.013Z,51.66
2018-09-16T12:43:42.997Z,50.89
2018-09-16T12:44:42.989Z,50.70
2018-09-16T12:45:42.974Z,50.57
2018-09-16T12:46:42.971Z,50.57
2018-09-16T12:47:42.969Z,50.38
2018-09-16T12:48:42.953Z,50.67
2018-09-16T12:49:42.932Z,50.96
2018-09-16T12:50:42.921Z,51.06
2018-09-16T12:51:42.914Z,51.32
2018-09-16T12:52:42.906Z,50.93
2018-09-16T12:53:42.886Z,51.13
2018-09-16T12:54:42.884Z,51.44
2018-09-16T12:55:42.871Z,50.57
2018-09-16T12:56:42.865Z,50.57
2018-09-16T12:57:42.852Z,50.60
2018-09-16T12:58:42.833Z,50.89
2018-09-16T12:59:42.830Z,49.99
2018-09-16T13:00:42.826Z,50.57
2018-09-16T13:01:42.809Z,50.57
2018-09-16T13:02:42.789Z,50.28
2018-09-16T13:03:42.778Z,50.65
2018-09-16T13:04:42.768Z,50.65
2018-09-16T13:05:42.755Z,50.84
2018-09-16T13:06:42.744Z,50.96
2018-09-16T13:07:42.737Z,50.96
2018-09-16T13:08:42.730Z,50.38
2018-09-16T13:09:42.713Z,50.76